sensor_id;sensor_type;location;lat;lon;timestamp;P1;durP1;ratioP1;P2;durP2;ratioP2
34035;SDS011;63481;52.588;22.472;2023-09-07T00:03:33;4.00;;;2.30;;
34035;SDS011;63481;52.588;22.472;2023-09-07T00:08:35;6.40;;;2.70;;
34035;SDS011;63481;52.588;22.472;2023-09-07T00:13:37;11.30;;;3.60;;
34035;SDS011;63481;52.588;22.472;2023-09-07T00:18:39;9.00;;;3.60;;
34035;SDS011;63481;52.588;22.472;2023-09-07T00:23:41;6.70;;;2.60;;
34035;SDS011;63481;52.588;22.472;2023-09-07T00:28:43;6.80;;;3.60;;
34035;SDS011;63481;52.588;22.472;2023-09-07T00:33:45;5.60;;;3.00;;
34035;SDS011;63481;52.588;22.472;2023-09-07T00:38:47;5.40;;;3.00;;
34035;SDS011;63481;52.588;22.472;2023-09-07T00:43:49;6.10;;;3.20;;
34035;SDS011;63481;52.588;22.472;2023-09-07T00:48:51;5.40;;;3.20;;
34035;SDS011;63481;52.588;22.472;2023-09-07T00:53:53;6.20;;;3.20;;
34035;SDS011;63481;52.588;22.472;2023-09-07T00:58:56;4.20;;;2.70;;
34035;SDS011;63481;52.588;22.472;2023-09-07T01:09:06;3.50;;;2.20;;
34035;SDS011;63481;52.588;22.472;2023-09-07T01:14:14;5.30;;;2.70;;
34035;SDS011;63481;52.588;22.472;2023-09-07T01:19:16;4.00;;;2.80;;
34035;SDS011;63481;52.588;22.472;2023-09-07T01:24:19;8.30;;;3.40;;
34035;SDS011;63481;52.588;22.472;2023-09-07T01:29:22;6.60;;;2.90;;
34035;SDS011;63481;52.588;22.472;2023-09-07T01:34:24;5.70;;;2.70;;
34035;SDS011;63481;52.588;22.472;2023-09-07T01:39:26;10.90;;;2.50;;
34035;SDS011;63481;52.588;22.472;2023-09-07T01:44:28;5.20;;;2.80;;
34035;SDS011;63481;52.588;22.472;2023-09-07T01:49:31;4.90;;;2.80;;
34035;SDS011;63481;52.588;22.472;2023-09-07T01:54:33;5.20;;;2.90;;
34035;SDS011;63481;52.588;22.472;2023-09-07T01:59:35;4.00;;;2.20;;
34035;SDS011;63481;52.588;22.472;2023-09-07T02:04:37;5.90;;;2.50;;
34035;SDS011;63481;52.588;22.472;2023-09-07T02:09:39;10.10;;;2.70;;
34035;SDS011;63481;52.588;22.472;2023-09-07T02:14:41;4.30;;;2.50;;
34035;SDS011;63481;52.588;22.472;2023-09-07T02:19:43;5.80;;;2.60;;
34035;SDS011;63481;52.588;22.472;2023-09-07T02:24:46;6.40;;;2.50;;
34035;SDS011;63481;52.588;22.472;2023-09-07T02:29:48;6.40;;;2.90;;
34035;SDS011;63481;52.588;22.472;2023-09-07T02:34:50;4.20;;;2.30;;
34035;SDS011;63481;52.588;22.472;2023-09-07T02:39:52;8.30;;;2.70;;
34035;SDS011;63481;52.588;22.472;2023-09-07T02:44:54;6.00;;;2.90;;
34035;SDS011;63481;52.588;22.472;2023-09-07T02:49:56;5.00;;;2.60;;
34035;SDS011;63481;52.588;22.472;2023-09-07T02:54:58;5.80;;;2.50;;
34035;SDS011;63481;52.588;22.472;2023-09-07T03:00:01;6.70;;;2.70;;
34035;SDS011;63481;52.588;22.472;2023-09-07T03:05:11;8.20;;;3.20;;
34035;SDS011;63481;52.588;22.472;2023-09-07T03:10:13;3.90;;;2.40;;
34035;SDS011;63481;52.588;22.472;2023-09-07T03:15:16;7.00;;;3.00;;
34035;SDS011;63481;52.588;22.472;2023-09-07T03:20:18;6.20;;;2.40;;
34035;SDS011;63481;52.588;22.472;2023-09-07T03:25:23;5.70;;;2.80;;
34035;SDS011;63481;52.588;22.472;2023-09-07T03:30:25;6.20;;;3.00;;
34035;SDS011;63481;52.588;22.472;2023-09-07T03:35:28;4.30;;;2.40;;
34035;SDS011;63481;52.588;22.472;2023-09-07T03:40:30;4.70;;;2.40;;
34035;SDS011;63481;52.588;22.472;2023-09-07T03:45:32;4.90;;;3.00;;
34035;SDS011;63481;52.588;22.472;2023-09-07T03:50:35;6.70;;;2.80;;
34035;SDS011;63481;52.588;22.472;2023-09-07T03:55:40;4.30;;;2.20;;
34035;SDS011;63481;52.588;22.472;2023-09-07T04:00:43;5.80;;;2.50;;
34035;SDS011;63481;52.588;22.472;2023-09-07T04:05:46;5.70;;;2.70;;
34035;SDS011;63481;52.588;22.472;2023-09-07T04:10:48;5.50;;;2.80;;
34035;SDS011;63481;52.588;22.472;2023-09-07T04:15:50;4.60;;;2.60;;
34035;SDS011;63481;52.588;22.472;2023-09-07T04:20:52;3.90;;;2.30;;
34035;SDS011;63481;52.588;22.472;2023-09-07T04:26:03;4.50;;;2.20;;
34035;SDS011;63481;52.588;22.472;2023-09-07T04:31:09;6.60;;;2.50;;
34035;SDS011;63481;52.588;22.472;2023-09-07T04:36:12;5.40;;;2.60;;
34035;SDS011;63481;52.588;22.472;2023-09-07T04:41:17;4.80;;;2.60;;
34035;SDS011;63481;52.588;22.472;2023-09-07T04:46:21;3.30;;;2.10;;
34035;SDS011;63481;52.588;22.472;2023-09-07T04:51:24;4.20;;;3.20;;
34035;SDS011;63481;52.588;22.472;2023-09-07T04:56:27;6.10;;;2.90;;
34035;SDS011;63481;52.588;22.472;2023-09-07T05:01:31;6.20;;;2.70;;
34035;SDS011;63481;52.588;22.472;2023-09-07T05:06:34;5.60;;;2.30;;
34035;SDS011;63481;52.588;22.472;2023-09-07T05:11:39;4.40;;;2.40;;
34035;SDS011;63481;52.588;22.472;2023-09-07T05:16:42;5.30;;;2.80;;
34035;SDS011;63481;52.588;22.472;2023-09-07T05:21:45;4.70;;;2.30;;
34035;SDS011;63481;52.588;22.472;2023-09-07T05:26:47;6.30;;;2.60;;
34035;SDS011;63481;52.588;22.472;2023-09-07T05:31:49;4.60;;;2.30;;
34035;SDS011;63481;52.588;22.472;2023-09-07T05:36:51;3.50;;;2.30;;
34035;SDS011;63481;52.588;22.472;2023-09-07T05:41:54;4.10;;;2.30;;
34035;SDS011;63481;52.588;22.472;2023-09-07T05:46:56;11.30;;;3.40;;
34035;SDS011;63481;52.588;22.472;2023-09-07T05:57:02;4.90;;;2.00;;
34035;SDS011;63481;52.588;22.472;2023-09-07T06:02:04;4.30;;;2.30;;
34035;SDS011;63481;52.588;22.472;2023-09-07T06:07:07;4.60;;;2.30;;
34035;SDS011;63481;52.588;22.472;2023-09-07T06:12:09;3.20;;;2.00;;
34035;SDS011;63481;52.588;22.472;2023-09-07T06:17:11;5.20;;;2.30;;
34035;SDS011;63481;52.588;22.472;2023-09-07T06:22:13;5.00;;;2.20;;
34035;SDS011;63481;52.588;22.472;2023-09-07T06:27:15;7.80;;;2.30;;
34035;SDS011;63481;52.588;22.472;2023-09-07T06:32:17;2.60;;;2.00;;
34035;SDS011;63481;52.588;22.472;2023-09-07T06:37:20;2.40;;;1.70;;
34035;SDS011;63481;52.588;22.472;2023-09-07T06:42:22;3.70;;;2.20;;
34035;SDS011;63481;52.588;22.472;2023-09-07T06:47:32;5.40;;;2.40;;
34035;SDS011;63481;52.588;22.472;2023-09-07T06:52:35;2.80;;;1.80;;
34035;SDS011;63481;52.588;22.472;2023-09-07T06:57:37;3.90;;;1.80;;
34035;SDS011;63481;52.588;22.472;2023-09-07T07:02:40;4.20;;;2.00;;
34035;SDS011;63481;52.588;22.472;2023-09-07T07:12:46;4.90;;;2.20;;
34035;SDS011;63481;52.588;22.472;2023-09-07T07:17:48;3.30;;;1.70;;
34035;SDS011;63481;52.588;22.472;2023-09-07T07:22:50;3.40;;;2.20;;
34035;SDS011;63481;52.588;22.472;2023-09-07T07:27:53;3.80;;;1.90;;
34035;SDS011;63481;52.588;22.472;2023-09-07T07:32:55;5.70;;;1.70;;
34035;SDS011;63481;52.588;22.472;2023-09-07T07:37:58;3.30;;;2.00;;
34035;SDS011;63481;52.588;22.472;2023-09-07T07:43:00;4.20;;;2.40;;
34035;SDS011;63481;52.588;22.472;2023-09-07T07:48:03;3.10;;;1.80;;
34035;SDS011;63481;52.588;22.472;2023-09-07T07:53:07;3.80;;;2.20;;
34035;SDS011;63481;52.588;22.472;2023-09-07T07:58:10;4.90;;;1.90;;
34035;SDS011;63481;52.588;22.472;2023-09-07T08:03:13;4.30;;;1.70;;
34035;SDS011;63481;52.588;22.472;2023-09-07T08:08:15;3.00;;;1.70;;
34035;SDS011;63481;52.588;22.472;2023-09-07T08:13:17;3.30;;;1.60;;
34035;SDS011;63481;52.588;22.472;2023-09-07T08:18:21;2.50;;;1.80;;
34035;SDS011;63481;52.588;22.472;2023-09-07T08:23:25;2.00;;;1.50;;
34035;SDS011;63481;52.588;22.472;2023-09-07T08:28:27;2.70;;;1.30;;
34035;SDS011;63481;52.588;22.472;2023-09-07T08:33:31;5.10;;;2.10;;
34035;SDS011;63481;52.588;22.472;2023-09-07T08:38:41;4.40;;;1.60;;
34035;SDS011;63481;52.588;22.472;2023-09-07T08:43:44;5.80;;;2.00;;
34035;SDS011;63481;52.588;22.472;2023-09-07T08:48:48;6.60;;;2.00;;
34035;SDS011;63481;52.588;22.472;2023-09-07T08:58:53;2.70;;;1.70;;
34035;SDS011;63481;52.588;22.472;2023-09-07T09:03:55;4.30;;;2.00;;
34035;SDS011;63481;52.588;22.472;2023-09-07T09:08:57;4.00;;;2.00;;
34035;SDS011;63481;52.588;22.472;2023-09-07T09:13:59;3.10;;;1.70;;
34035;SDS011;63481;52.588;22.472;2023-09-07T09:19:01;2.80;;;1.70;;
34035;SDS011;63481;52.588;22.472;2023-09-07T09:24:03;2.70;;;1.90;;
34035;SDS011;63481;52.588;22.472;2023-09-07T09:29:11;1.70;;;1.10;;
34035;SDS011;63481;52.588;22.472;2023-09-07T09:34:13;2.20;;;1.40;;
34035;SDS011;63481;52.588;22.472;2023-09-07T09:39:23;3.80;;;1.60;;
34035;SDS011;63481;52.588;22.472;2023-09-07T09:44:26;12.40;;;2.00;;
34035;SDS011;63481;52.588;22.472;2023-09-07T09:49:30;3.20;;;1.60;;
34035;SDS011;63481;52.588;22.472;2023-09-07T09:54:34;3.20;;;2.00;;
34035;SDS011;63481;52.588;22.472;2023-09-07T09:59:37;1.90;;;1.30;;
34035;SDS011;63481;52.588;22.472;2023-09-07T10:04:39;2.00;;;1.40;;
34035;SDS011;63481;52.588;22.472;2023-09-07T10:09:41;4.20;;;1.80;;
34035;SDS011;63481;52.588;22.472;2023-09-07T10:14:45;3.50;;;1.60;;
34035;SDS011;63481;52.588;22.472;2023-09-07T10:20:01;3.60;;;2.00;;
34035;SDS011;63481;52.588;22.472;2023-09-07T10:25:21;1.40;;;1.20;;
34035;SDS011;63481;52.588;22.472;2023-09-07T10:30:24;8.30;;;1.70;;
34035;SDS011;63481;52.588;22.472;2023-09-07T10:35:26;4.00;;;1.90;;
34035;SDS011;63481;52.588;22.472;2023-09-07T10:40:30;4.00;;;1.70;;
34035;SDS011;63481;52.588;22.472;2023-09-07T10:45:32;2.80;;;1.40;;
34035;SDS011;63481;52.588;22.472;2023-09-07T10:50:46;2.70;;;1.30;;
34035;SDS011;63481;52.588;22.472;2023-09-07T10:55:49;0.80;;;0.80;;
34035;SDS011;63481;52.588;22.472;2023-09-07T11:00:52;1.10;;;0.90;;
34035;SDS011;63481;52.588;22.472;2023-09-07T11:05:56;3.90;;;1.40;;
34035;SDS011;63481;52.588;22.472;2023-09-07T11:11:04;3.10;;;1.30;;
34035;SDS011;63481;52.588;22.472;2023-09-07T11:16:07;1.80;;;1.10;;
34035;SDS011;63481;52.588;22.472;2023-09-07T11:21:10;2.40;;;1.60;;
34035;SDS011;63481;52.588;22.472;2023-09-07T11:26:12;1.60;;;1.00;;
34035;SDS011;63481;52.588;22.472;2023-09-07T11:31:18;4.50;;;1.70;;
34035;SDS011;63481;52.588;22.472;2023-09-07T11:36:22;2.30;;;1.30;;
34035;SDS011;63481;52.588;22.472;2023-09-07T11:41:26;2.30;;;1.40;;
34035;SDS011;63481;52.588;22.472;2023-09-07T11:46:28;2.60;;;1.40;;
34035;SDS011;63481;52.588;22.472;2023-09-07T11:51:30;1.10;;;1.00;;
34035;SDS011;63481;52.588;22.472;2023-09-07T11:56:32;3.70;;;1.70;;
34035;SDS011;63481;52.588;22.472;2023-09-07T12:01:36;1.80;;;1.30;;
34035;SDS011;63481;52.588;22.472;2023-09-07T12:06:41;3.10;;;1.70;;
34035;SDS011;63481;52.588;22.472;2023-09-07T12:11:43;1.90;;;1.40;;
34035;SDS011;63481;52.588;22.472;2023-09-07T12:16:45;3.40;;;1.60;;
34035;SDS011;63481;52.588;22.472;2023-09-07T12:21:48;1.80;;;1.10;;
34035;SDS011;63481;52.588;22.472;2023-09-07T12:26:50;1.70;;;1.10;;
34035;SDS011;63481;52.588;22.472;2023-09-07T12:31:52;3.60;;;1.30;;
34035;SDS011;63481;52.588;22.472;2023-09-07T12:36:54;3.50;;;1.30;;
34035;SDS011;63481;52.588;22.472;2023-09-07T12:41:56;2.90;;;1.30;;
34035;SDS011;63481;52.588;22.472;2023-09-07T12:46:58;2.60;;;1.60;;
34035;SDS011;63481;52.588;22.472;2023-09-07T12:52:00;1.50;;;1.10;;
34035;SDS011;63481;52.588;22.472;2023-09-07T12:57:02;1.30;;;1.00;;
34035;SDS011;63481;52.588;22.472;2023-09-07T13:02:04;2.70;;;1.30;;
34035;SDS011;63481;52.588;22.472;2023-09-07T13:07:06;2.30;;;1.50;;
34035;SDS011;63481;52.588;22.472;2023-09-07T13:12:08;1.60;;;1.00;;
34035;SDS011;63481;52.588;22.472;2023-09-07T13:17:12;1.60;;;1.20;;
34035;SDS011;63481;52.588;22.472;2023-09-07T13:22:16;1.70;;;1.10;;
34035;SDS011;63481;52.588;22.472;2023-09-07T13:27:18;2.90;;;1.20;;
34035;SDS011;63481;52.588;22.472;2023-09-07T13:32:20;0.90;;;0.80;;
34035;SDS011;63481;52.588;22.472;2023-09-07T13:37:22;5.20;;;1.20;;
34035;SDS011;63481;52.588;22.472;2023-09-07T13:42:25;2.70;;;1.50;;
34035;SDS011;63481;52.588;22.472;2023-09-07T13:47:28;2.60;;;1.00;;
34035;SDS011;63481;52.588;22.472;2023-09-07T13:52:30;1.40;;;0.90;;
34035;SDS011;63481;52.588;22.472;2023-09-07T13:57:33;0.90;;;0.90;;
34035;SDS011;63481;52.588;22.472;2023-09-07T14:02:35;0.70;;;0.70;;
34035;SDS011;63481;52.588;22.472;2023-09-07T14:07:37;7.40;;;1.00;;
34035;SDS011;63481;52.588;22.472;2023-09-07T14:12:39;2.20;;;1.00;;
34035;SDS011;63481;52.588;22.472;2023-09-07T14:17:41;1.70;;;1.20;;
34035;SDS011;63481;52.588;22.472;2023-09-07T14:22:43;1.40;;;1.00;;
34035;SDS011;63481;52.588;22.472;2023-09-07T14:27:44;1.60;;;1.10;;
34035;SDS011;63481;52.588;22.472;2023-09-07T14:32:46;1.90;;;1.10;;
34035;SDS011;63481;52.588;22.472;2023-09-07T14:37:50;3.30;;;0.90;;
34035;SDS011;63481;52.588;22.472;2023-09-07T14:42:54;2.50;;;1.10;;
34035;SDS011;63481;52.588;22.472;2023-09-07T14:47:58;1.10;;;1.00;;
34035;SDS011;63481;52.588;22.472;2023-09-07T14:53:01;1.60;;;1.10;;
34035;SDS011;63481;52.588;22.472;2023-09-07T14:58:03;1.50;;;1.10;;
34035;SDS011;63481;52.588;22.472;2023-09-07T15:03:06;1.00;;;0.90;;
34035;SDS011;63481;52.588;22.472;2023-09-07T15:08:08;6.90;;;1.10;;
34035;SDS011;63481;52.588;22.472;2023-09-07T15:13:10;2.90;;;1.40;;
34035;SDS011;63481;52.588;22.472;2023-09-07T15:18:12;4.30;;;1.40;;
34035;SDS011;63481;52.588;22.472;2023-09-07T15:23:13;1.50;;;0.80;;
34035;SDS011;63481;52.588;22.472;2023-09-07T15:28:17;4.30;;;2.00;;
34035;SDS011;63481;52.588;22.472;2023-09-07T15:33:20;1.70;;;1.20;;
34035;SDS011;63481;52.588;22.472;2023-09-07T15:38:23;1.90;;;1.00;;
34035;SDS011;63481;52.588;22.472;2023-09-07T15:43:25;2.40;;;1.10;;
34035;SDS011;63481;52.588;22.472;2023-09-07T15:48:27;1.60;;;1.00;;
34035;SDS011;63481;52.588;22.472;2023-09-07T15:53:33;1.70;;;1.00;;
34035;SDS011;63481;52.588;22.472;2023-09-07T15:58:35;2.70;;;1.30;;
34035;SDS011;63481;52.588;22.472;2023-09-07T16:03:37;3.30;;;1.40;;
34035;SDS011;63481;52.588;22.472;2023-09-07T16:08:39;1.40;;;1.00;;
34035;SDS011;63481;52.588;22.472;2023-09-07T16:13:41;2.00;;;0.80;;
34035;SDS011;63481;52.588;22.472;2023-09-07T16:18:43;4.10;;;0.90;;
34035;SDS011;63481;52.588;22.472;2023-09-07T16:23:45;2.60;;;1.00;;
34035;SDS011;63481;52.588;22.472;2023-09-07T16:28:47;1.10;;;0.90;;
34035;SDS011;63481;52.588;22.472;2023-09-07T16:33:50;3.40;;;1.10;;
34035;SDS011;63481;52.588;22.472;2023-09-07T16:38:54;1.10;;;0.90;;
34035;SDS011;63481;52.588;22.472;2023-09-07T16:43:56;27.10;;;1.60;;
34035;SDS011;63481;52.588;22.472;2023-09-07T16:48:58;11.80;;;1.70;;
34035;SDS011;63481;52.588;22.472;2023-09-07T16:54:00;17.70;;;1.80;;
34035;SDS011;63481;52.588;22.472;2023-09-07T16:59:02;3.80;;;1.00;;
34035;SDS011;63481;52.588;22.472;2023-09-07T17:04:05;5.60;;;1.20;;
34035;SDS011;63481;52.588;22.472;2023-09-07T17:09:07;6.10;;;2.40;;
34035;SDS011;63481;52.588;22.472;2023-09-07T17:14:09;3.20;;;2.00;;
34035;SDS011;63481;52.588;22.472;2023-09-07T17:19:11;3.10;;;1.20;;
34035;SDS011;63481;52.588;22.472;2023-09-07T17:24:13;5.70;;;1.90;;
34035;SDS011;63481;52.588;22.472;2023-09-07T17:29:15;5.30;;;1.30;;
34035;SDS011;63481;52.588;22.472;2023-09-07T17:34:17;2.00;;;1.40;;
34035;SDS011;63481;52.588;22.472;2023-09-07T17:39:19;2.90;;;1.60;;
34035;SDS011;63481;52.588;22.472;2023-09-07T17:44:21;6.00;;;1.10;;
34035;SDS011;63481;52.588;22.472;2023-09-07T17:49:23;2.00;;;1.30;;
34035;SDS011;63481;52.588;22.472;2023-09-07T17:54:25;2.70;;;1.40;;
34035;SDS011;63481;52.588;22.472;2023-09-07T17:59:28;1.60;;;1.20;;
34035;SDS011;63481;52.588;22.472;2023-09-07T18:04:30;1.60;;;1.10;;
34035;SDS011;63481;52.588;22.472;2023-09-07T18:09:32;3.70;;;1.50;;
34035;SDS011;63481;52.588;22.472;2023-09-07T18:14:34;2.30;;;1.30;;
34035;SDS011;63481;52.588;22.472;2023-09-07T18:19:36;2.70;;;1.60;;
34035;SDS011;63481;52.588;22.472;2023-09-07T18:24:38;2.80;;;1.20;;
34035;SDS011;63481;52.588;22.472;2023-09-07T18:29:40;1.40;;;1.20;;
34035;SDS011;63481;52.588;22.472;2023-09-07T18:34:42;1.30;;;1.00;;
34035;SDS011;63481;52.588;22.472;2023-09-07T18:39:44;1.60;;;1.20;;
34035;SDS011;63481;52.588;22.472;2023-09-07T18:44:45;2.40;;;1.20;;
34035;SDS011;63481;52.588;22.472;2023-09-07T18:49:47;5.10;;;2.00;;
34035;SDS011;63481;52.588;22.472;2023-09-07T18:54:50;1.50;;;1.20;;
34035;SDS011;63481;52.588;22.472;2023-09-07T18:59:52;2.50;;;1.60;;
34035;SDS011;63481;52.588;22.472;2023-09-07T19:04:54;5.00;;;2.00;;
34035;SDS011;63481;52.588;22.472;2023-09-07T19:09:55;4.40;;;1.40;;
34035;SDS011;63481;52.588;22.472;2023-09-07T19:14:57;9.00;;;2.70;;
34035;SDS011;63481;52.588;22.472;2023-09-07T19:19:59;3.30;;;1.50;;
34035;SDS011;63481;52.588;22.472;2023-09-07T19:25:02;6.60;;;1.70;;
34035;SDS011;63481;52.588;22.472;2023-09-07T19:30:08;4.40;;;1.50;;
34035;SDS011;63481;52.588;22.472;2023-09-07T19:35:10;4.60;;;1.90;;
34035;SDS011;63481;52.588;22.472;2023-09-07T19:40:12;8.90;;;1.60;;
34035;SDS011;63481;52.588;22.472;2023-09-07T19:45:14;2.80;;;1.70;;
34035;SDS011;63481;52.588;22.472;2023-09-07T19:50:16;3.00;;;1.30;;
34035;SDS011;63481;52.588;22.472;2023-09-07T20:00:22;7.60;;;1.70;;
34035;SDS011;63481;52.588;22.472;2023-09-07T20:05:26;1.40;;;1.30;;
34035;SDS011;63481;52.588;22.472;2023-09-07T20:10:28;2.10;;;1.50;;
34035;SDS011;63481;52.588;22.472;2023-09-07T20:15:30;3.40;;;1.70;;
34035;SDS011;63481;52.588;22.472;2023-09-07T20:20:32;6.90;;;1.50;;
34035;SDS011;63481;52.588;22.472;2023-09-07T20:25:34;3.20;;;1.70;;
34035;SDS011;63481;52.588;22.472;2023-09-07T20:30:36;1.90;;;1.30;;
34035;SDS011;63481;52.588;22.472;2023-09-07T20:35:38;2.20;;;1.50;;
34035;SDS011;63481;52.588;22.472;2023-09-07T20:40:40;3.00;;;1.60;;
34035;SDS011;63481;52.588;22.472;2023-09-07T20:45:42;3.90;;;1.40;;
34035;SDS011;63481;52.588;22.472;2023-09-07T20:50:44;2.80;;;1.50;;
34035;SDS011;63481;52.588;22.472;2023-09-07T20:55:47;5.10;;;1.40;;
34035;SDS011;63481;52.588;22.472;2023-09-07T21:00:50;3.30;;;1.60;;
34035;SDS011;63481;52.588;22.472;2023-09-07T21:05:52;1.90;;;1.50;;
34035;SDS011;63481;52.588;22.472;2023-09-07T21:10:54;4.00;;;2.50;;
34035;SDS011;63481;52.588;22.472;2023-09-07T21:15:56;2.80;;;1.80;;
34035;SDS011;63481;52.588;22.472;2023-09-07T21:20:58;3.30;;;1.90;;
34035;SDS011;63481;52.588;22.472;2023-09-07T21:26:00;8.00;;;2.00;;
34035;SDS011;63481;52.588;22.472;2023-09-07T21:31:02;3.40;;;1.90;;
34035;SDS011;63481;52.588;22.472;2023-09-07T21:36:04;3.60;;;2.00;;
34035;SDS011;63481;52.588;22.472;2023-09-07T21:41:06;13.40;;;1.90;;
34035;SDS011;63481;52.588;22.472;2023-09-07T21:46:08;2.00;;;1.40;;
34035;SDS011;63481;52.588;22.472;2023-09-07T21:51:10;3.60;;;1.60;;
34035;SDS011;63481;52.588;22.472;2023-09-07T21:56:12;3.00;;;1.60;;
34035;SDS011;63481;52.588;22.472;2023-09-07T22:01:15;3.40;;;1.90;;
34035;SDS011;63481;52.588;22.472;2023-09-07T22:06:17;1.40;;;1.20;;
34035;SDS011;63481;52.588;22.472;2023-09-07T22:11:19;3.30;;;1.80;;
34035;SDS011;63481;52.588;22.472;2023-09-07T22:16:21;3.40;;;1.90;;
34035;SDS011;63481;52.588;22.472;2023-09-07T22:21:23;2.50;;;1.60;;
34035;SDS011;63481;52.588;22.472;2023-09-07T22:26:26;2.30;;;1.50;;
34035;SDS011;63481;52.588;22.472;2023-09-07T22:31:28;5.40;;;2.30;;
34035;SDS011;63481;52.588;22.472;2023-09-07T22:36:30;1.20;;;1.10;;
34035;SDS011;63481;52.588;22.472;2023-09-07T22:41:32;5.20;;;2.30;;
34035;SDS011;63481;52.588;22.472;2023-09-07T22:46:34;8.30;;;1.70;;
34035;SDS011;63481;52.588;22.472;2023-09-07T22:51:36;1.60;;;1.10;;
34035;SDS011;63481;52.588;22.472;2023-09-07T22:56:38;3.90;;;1.80;;
34035;SDS011;63481;52.588;22.472;2023-09-07T23:01:40;4.10;;;2.00;;
34035;SDS011;63481;52.588;22.472;2023-09-07T23:06:42;4.50;;;1.80;;
34035;SDS011;63481;52.588;22.472;2023-09-07T23:11:44;1.70;;;1.40;;
34035;SDS011;63481;52.588;22.472;2023-09-07T23:16:46;3.50;;;1.70;;
34035;SDS011;63481;52.588;22.472;2023-09-07T23:21:48;4.40;;;2.30;;
34035;SDS011;63481;52.588;22.472;2023-09-07T23:26:50;4.80;;;2.30;;
34035;SDS011;63481;52.588;22.472;2023-09-07T23:31:52;2.90;;;1.50;;
34035;SDS011;63481;52.588;22.472;2023-09-07T23:36:54;3.10;;;2.00;;
34035;SDS011;63481;52.588;22.472;2023-09-07T23:41:56;3.60;;;1.80;;
34035;SDS011;63481;52.588;22.472;2023-09-07T23:46:58;4.00;;;1.70;;
34035;SDS011;63481;52.588;22.472;2023-09-07T23:52:00;3.70;;;2.00;;
34035;SDS011;63481;52.588;22.472;2023-09-07T23:57:02;2.80;;;1.70;;
